Ashtabula, Ohio
Current Conditions -  °F | °C
As of 11:53 AM on Friday 24 Oct 2014 (Local Time) from KHZY Reporting Station
Few Clouds Few Clouds  
Wind Chill: 55°   Ceiling: Unl
Heat Index: 55°   Visibility: 10mi
Dew Point: 44°   Wind: 8mph
Humidity: 67%   Direction: 290°WNW
Pressure: 30.07"   Gusts: NA
Location:  41.89°N, 80.79°W
Report Text: KHZY 241553Z AUTO 29007KT 10SM FEW022 13/07 A3007 RMK AO2 SLP186 T01280067
Loading
Personal Weather Stations






























Interactive Weather Map
Tropical Storm Tracking
New forecast layout! Learn more

10-Day Weather Forecast

Advertisements
Track Severe Weather on mobile